Time;durP1;ratioP1;P1;durP2;ratioP2;P2;SDS_P1;SDS_P2;PMS_P1;PMS_P2;Temp;Humidity;BMP_temperature;BMP_pressure;BME280_temperature;BME280_humidity;BME280_pressure;Samples;Min_cycle;Max_cycle;Signal;HPM_P1;HPM_P2
2023/05/04 00:00:58;;;;;;;;;;;;;;;26.05;29.70;101284.81;5078096;28;1134;-20
2023/05/04 00:03:23;;;;;;;;;;;;;;;25.96;30.13;101307.38;5089888;28;1119;-20
2023/05/04 00:05:49;;;;;;;;;;;;;;;25.85;30.02;101335.44;5080839;28;1045;-20
2023/05/04 00:08:14;;;;;;;;;;;;;;;26.02;29.53;101294.09;5079049;28;1115;-20
2023/05/04 00:10:40;;;;;;;;;;;;;;;26.01;29.90;101329.28;5082702;28;1155;-20
2023/05/04 00:13:05;;;;;;;;;;;;;;;26.04;30.21;101296.63;5099105;28;1237;-20
2023/05/04 00:15:31;;;;;;;;;;;;;;;26.11;29.77;101253.69;5093862;28;1261;-20
2023/05/04 00:17:56;;;;;;;;;;;;;;;26.14;29.99;101296.50;5078698;28;1967;-20
2023/05/04 00:20:22;;;;;;;;;;;;;;;25.97;30.18;101291.03;5082957;28;1225;-20
2023/05/04 00:22:47;;;;;;;;;;;;;;;25.54;30.78;101277.50;5087827;28;1042;-20
2023/05/04 00:25:13;;;;;;;;;;;;;;;25.54;30.68;101254.06;5078652;28;1297;-20
2023/05/04 00:27:38;;;;;;;;;;;;;;;25.54;30.61;101264.84;5078914;28;888;-20
2023/05/04 00:30:05;;;;;;;;;;;;;;;25.59;30.45;101288.59;5077585;28;1249;-20
2023/05/04 00:32:30;;;;;;;;;;;;;;;25.52;30.60;101288.44;5087952;28;1074;-20
2023/05/04 00:34:56;;;;;;;;;;;;;;;25.59;30.91;101283.22;5095389;28;1059;-20
2023/05/04 00:37:21;;;;;;;;;;;;;;;25.62;30.63;101271.28;5087706;28;1905;-20
2023/05/04 00:39:47;;;;;;;;;;;;;;;25.46;30.98;101274.75;5068047;28;1023;-20
2023/05/04 00:42:12;;;;;;;;;;;;;;;25.42;31.08;101276.91;5070779;28;1222;-20
2023/05/04 00:44:40;;;;;;;;;;;;;;;25.52;30.54;101279.50;5075862;28;1149;-20
2023/05/04 00:47:06;;;;;;;;;;;;;;;25.58;30.54;101267.22;5088882;28;1102;-20
2023/05/04 00:49:32;;;;;;;;;;;;;;;25.66;30.57;101278.06;5084876;28;1229;-20
2023/05/04 00:51:58;;;;;;;;;;;;;;;25.53;30.83;101271.25;5066803;28;1181;-19
2023/05/04 00:54:23;;;;;;;;;;;;;;;25.53;30.66;101260.47;5076557;28;1314;-20
2023/05/04 00:56:49;;;;;;;;;;;;;;;25.44;30.75;101250.66;5076352;28;1967;-20
2023/05/04 00:59:14;;;;;;;;;;;;;;;25.52;30.82;101236.41;5077683;28;1058;-20
2023/05/04 01:01:40;;;;;;;;;;;;;;;25.63;30.83;101246.91;5071231;28;1274;-20
2023/05/04 01:04:06;;;;;;;;;;;;;;;25.73;30.24;101246.78;5088336;28;1145;-20
2023/05/04 01:06:40;;;;;;;;;;;;;;;25.51;30.58;101248.16;5077287;28;1119;-20
2023/05/04 01:09:09;;;;;;;;;;;;;;;25.38;31.02;101245.91;5063330;28;1344;-20
2023/05/04 01:11:47;;;;;;;;;;;;;;;25.58;30.42;101246.53;5085588;28;1091;-20
2023/05/04 01:14:12;;;;;;;;;;;;;;;25.52;30.60;101233.69;5077405;28;1276;-20
2023/05/04 01:16:38;;;;;;;;;;;;;;;25.54;30.45;101235.22;5075444;28;1969;-20
2023/05/04 01:19:03;;;;;;;;;;;;;;;25.91;29.78;101225.13;5078663;28;1126;-20
2023/05/04 01:21:29;;;;;;;;;;;;;;;25.72;30.27;101220.88;5077066;28;1042;-19
2023/05/04 01:23:55;;;;;;;;;;;;;;;26.01;30.09;101232.22;5077591;28;1137;-20
2023/05/04 01:26:20;;;;;;;;;;;;;;;25.99;30.06;101240.47;5058992;28;1215;-20
2023/05/04 01:28:51;;;;;;;;;;;;;;;25.92;30.31;101251.06;5086356;28;914;-20
2023/05/04 01:31:18;;;;;;;;;;;;;;;25.92;30.22;101261.84;5077680;28;1639;-20
2023/05/04 01:33:43;;;;;;;;;;;;;;;25.83;30.44;101270.06;5063084;28;1486;-20
2023/05/04 01:36:09;;;;;;;;;;;;;;;25.70;30.07;101271.38;5064368;28;1154;-20
2023/05/04 01:38:34;;;;;;;;;;;;;;;26.03;29.90;101262.56;5084443;28;1983;-20
2023/05/04 01:41:00;;;;;;;;;;;;;;;25.91;30.22;101262.88;5083551;28;936;-20
2023/05/04 01:43:25;;;;;;;;;;;;;;;25.94;30.25;101269.81;5079069;28;1174;-21
2023/05/04 01:45:51;;;;;;;;;;;;;;;25.96;29.97;101275.03;5097304;28;1138;-20
2023/05/04 01:48:16;;;;;;;;;;;;;;;25.88;29.97;101279.38;5088735;28;1065;-19
2023/05/04 01:50:42;;;;;;;;;;;;;;;25.84;29.95;101263.69;5076751;28;1119;-20
2023/05/04 01:53:07;;;;;;;;;;;;;;;25.88;30.14;101252.41;5087096;28;867;-20
2023/05/04 01:55:33;;;;;;;;;;;;;;;25.85;30.13;101241.09;5076619;28;1086;-20
2023/05/04 01:57:58;;;;;;;;;;;;;;;25.70;30.46;101239.03;5084611;28;1985;-20
2023/05/04 02:00:24;;;;;;;;;;;;;;;25.90;30.11;101239.63;5065211;28;1112;-21
2023/05/04 02:02:50;;;;;;;;;;;;;;;25.84;30.16;101224.09;5097137;28;1237;-20
2023/05/04 02:05:17;;;;;;;;;;;;;;;25.58;30.58;101218.72;5064899;28;1257;-20
2023/05/04 02:07:43;;;;;;;;;;;;;;;25.80;30.24;101214.66;5065288;28;1186;-20
2023/05/04 02:10:08;;;;;;;;;;;;;;;25.73;30.51;101211.75;5074470;28;1357;-20
2023/05/04 02:12:34;;;;;;;;;;;;;;;25.66;30.27;101206.19;5078112;28;1402;-20
2023/05/04 02:14:59;;;;;;;;;;;;;;;25.59;30.34;101202.41;5078556;28;1214;-20
2023/05/04 02:17:25;;;;;;;;;;;;;;;25.81;30.35;101216.31;5076512;28;1965;-20
2023/05/04 02:19:50;;;;;;;;;;;;;;;25.94;30.31;101210.50;5076254;28;1043;-20
2023/05/04 02:22:16;;;;;;;;;;;;;;;25.74;30.35;101196.44;5090127;28;1175;-20
2023/05/04 02:24:43;;;;;;;;;;;;;;;25.51;30.66;101205.91;5076022;28;1125;-20
2023/05/04 02:27:08;;;;;;;;;;;;;;;25.86;30.36;101200.53;5096834;28;1182;-20
2023/05/04 02:29:34;;;;;;;;;;;;;;;25.75;30.50;101200.81;5064998;28;1207;-20
2023/05/04 02:31:59;;;;;;;;;;;;;;;25.53;30.48;101195.81;5095915;28;1253;-20
2023/05/04 02:34:25;;;;;;;;;;;;;;;25.64;30.56;101199.28;5078496;28;1167;-20
2023/05/04 02:36:53;;;;;;;;;;;;;;;25.51;30.68;101223.91;5059419;28;1906;-20
2023/05/04 02:39:18;;;;;;;;;;;;;;;25.66;30.55;101227.72;5071260;28;1135;-20
2023/05/04 02:41:44;;;;;;;;;;;;;;;25.79;30.14;101219.19;5076193;28;1098;-20
2023/05/04 02:44:09;;;;;;;;;;;;;;;25.67;30.65;101228.59;5076335;28;1019;-20
2023/05/04 02:46:35;;;;;;;;;;;;;;;25.62;30.66;101225.50;5082773;28;1158;-20
2023/05/04 02:49:00;;;;;;;;;;;;;;;25.73;30.63;101238.72;5083016;28;1097;-20
2023/05/04 02:51:26;;;;;;;;;;;;;;;25.70;30.35;101249.81;5095043;28;1110;-20
2023/05/04 02:53:51;;;;;;;;;;;;;;;25.59;30.78;101250.06;5069513;28;1144;-20
2023/05/04 02:56:17;;;;;;;;;;;;;;;25.47;30.44;101271.91;5084418;28;1101;-20
2023/05/04 02:58:42;;;;;;;;;;;;;;;25.31;30.82;101269.91;5080954;28;1917;-20
2023/05/04 03:01:08;;;;;;;;;;;;;;;25.05;30.77;101251.91;5085215;28;1141;-19
2023/05/04 03:03:33;;;;;;;;;;;;;;;24.02;33.60;101254.75;5064579;28;1270;-19
2023/05/04 03:05:59;;;;;;;;;;;;;;;22.90;35.88;101265.19;5066448;28;1343;-19
2023/05/04 03:08:24;;;;;;;;;;;;;;;22.69;36.59;101269.69;5076548;28;1194;-19
2023/05/04 03:10:50;;;;;;;;;;;;;;;22.57;36.66;101279.69;5078933;28;1140;-19
2023/05/04 03:13:16;;;;;;;;;;;;;;;22.69;36.39;101284.97;5080916;28;927;-19
2023/05/04 03:15:41;;;;;;;;;;;;;;;22.61;36.55;101282.97;5094441;28;1142;-19
2023/05/04 03:18:08;;;;;;;;;;;;;;;22.69;36.36;101295.69;5078000;28;1914;-19
2023/05/04 03:20:34;;;;;;;;;;;;;;;22.92;36.14;101306.97;5071811;28;1134;-19
2023/05/04 03:23:00;;;;;;;;;;;;;;;22.91;36.08;101304.44;5070176;28;1439;-19
2023/05/04 03:25:26;;;;;;;;;;;;;;;22.73;36.40;101303.31;5058992;28;1370;-19
2023/05/04 03:27:51;;;;;;;;;;;;;;;22.93;36.02;101307.84;5075780;28;1231;-19
2023/05/04 03:30:17;;;;;;;;;;;;;;;22.73;36.25;101315.88;5064323;28;1268;-19
2023/05/04 03:32:44;;;;;;;;;;;;;;;22.90;36.11;101319.72;5077941;28;1213;-19
2023/05/04 03:35:10;;;;;;;;;;;;;;;22.69;36.38;101323.34;5090144;28;1188;-19
2023/05/04 03:37:36;;;;;;;;;;;;;;;22.71;36.26;101315.16;5061428;28;1906;-19
2023/05/04 03:40:02;;;;;;;;;;;;;;;22.75;36.27;101317.41;5098909;28;1150;-19
2023/05/04 03:42:27;;;;;;;;;;;;;;;22.87;36.04;101318.13;5085326;28;1292;-19
2023/05/04 03:44:53;;;;;;;;;;;;;;;22.81;36.40;101305.28;5068730;28;1222;-19
2023/05/04 03:47:19;;;;;;;;;;;;;;;22.68;36.35;101304.72;5083745;28;1096;-20
2023/05/04 03:49:46;;;;;;;;;;;;;;;22.73;36.01;101313.19;5061397;28;1130;-20
2023/05/04 03:52:12;;;;;;;;;;;;;;;22.75;37.32;101311.22;5063338;28;1332;-21
2023/05/04 03:54:37;;;;;;;;;;;;;;;23.32;35.35;101326.59;5066874;28;1186;-22
2023/05/04 03:57:03;;;;;;;;;;;;;;;23.67;34.56;101336.91;5061102;28;1973;-21
2023/05/04 03:59:30;;;;;;;;;;;;;;;23.66;34.53;101340.56;5092755;28;1075;-21
2023/05/04 04:01:55;;;;;;;;;;;;;;;23.31;35.23;101351.75;5077525;28;1215;-21
2023/05/04 04:04:21;;;;;;;;;;;;;;;23.28;35.46;101353.88;5092045;28;1455;-21
2023/05/04 04:06:46;;;;;;;;;;;;;;;23.34;37.24;101367.56;5079007;28;1186;-22
2023/05/04 04:09:12;;;;;;;;;;;;;;;23.04;37.71;101363.22;5079089;28;1078;-21
2023/05/04 04:11:38;;;;;;;;;;;;;;;23.45;35.48;101371.13;5078376;28;1111;-21
2023/05/04 04:14:03;;;;;;;;;;;;;;;24.37;33.47;101373.31;5066226;28;1274;-21
2023/05/04 04:16:29;;;;;;;;;;;;;;;27.94;27.45;101369.03;5097925;28;1085;-20
2023/05/04 04:18:55;;;;;;;;;;;;;;;25.48;30.68;101358.91;5084852;28;1941;-21
2023/05/04 04:21:20;;;;;;;;;;;;;;;25.13;31.76;101362.34;5086544;28;1080;-21
2023/05/04 04:23:46;;;;;;;;;;;;;;;27.83;27.70;101360.25;5083923;28;1015;-21
2023/05/04 04:26:12;;;;;;;;;;;;;;;29.24;25.65;101347.03;5086618;28;1161;-22
2023/05/04 04:28:37;;;;;;;;;;;;;;;29.14;25.32;101341.84;5081551;28;1052;-21
2023/05/04 04:31:03;;;;;;;;;;;;;;;29.03;25.75;101353.13;5078332;28;1328;-21
2023/05/04 04:33:28;;;;;;;;;;;;;;;29.06;25.58;101350.88;5078497;28;1222;-21
2023/05/04 04:35:54;;;;;;;;;;;;;;;29.23;25.42;101331.78;5077645;28;1218;-21
2023/05/04 04:38:20;;;;;;;;;;;;;;;29.35;25.27;101345.72;5077867;28;1917;-20
2023/05/04 04:40:46;;;;;;;;;;;;;;;29.42;25.09;101335.84;5079606;28;1230;-22
2023/05/04 04:43:11;;;;;;;;;;;;;;;29.54;25.06;101321.81;5078458;28;1249;-21
2023/05/04 04:45:39;;;;;;;;;;;;;;;29.61;24.88;101347.22;5077642;28;1272;-21
2023/05/04 04:48:05;;;;;;;;;;;;;;;29.75;24.49;101353.66;5077240;28;1250;-21
2023/05/04 04:50:31;;;;;;;;;;;;;;;29.74;24.63;101370.09;5086829;28;1124;-22
2023/05/04 04:52:56;;;;;;;;;;;;;;;30.01;24.27;101374.03;5097666;28;1114;-21
2023/05/04 04:55:24;;;;;;;;;;;;;;;30.00;24.37;101376.94;5089747;28;1094;-21
2023/05/04 04:57:51;;;;;;;;;;;;;;;30.04;24.42;101379.09;5077719;28;1901;-21
2023/05/04 05:00:16;;;;;;;;;;;;;;;29.97;24.40;101380.03;5078148;28;1043;-21
2023/05/04 05:02:42;;;;;;;;;;;;;;;29.15;25.13;101365.19;5079975;28;1121;-21
2023/05/04 05:05:08;;;;;;;;;;;;;;;28.38;26.72;101365.00;5094728;28;1030;-21
2023/05/04 05:07:33;;;;;;;;;;;;;;;29.30;25.37;101343.56;5084326;28;1236;-21
2023/05/04 05:09:59;;;;;;;;;;;;;;;29.55;25.02;101315.38;5086232;28;1172;-21
2023/05/04 05:12:25;;;;;;;;;;;;;;;28.35;26.55;101281.47;5091123;28;1075;-21
2023/05/04 05:14:50;;;;;;;;;;;;;;;27.30;28.33;101271.50;5077105;28;1126;-21
2023/05/04 05:17:16;;;;;;;;;;;;;;;28.09;27.47;101272.59;5078121;28;1910;-21
2023/05/04 05:19:42;;;;;;;;;;;;;;;28.76;26.69;101257.84;5089519;28;1035;-21
2023/05/04 05:22:08;;;;;;;;;;;;;;;27.58;28.57;101259.44;5079027;28;1166;-21
2023/05/04 05:24:33;;;;;;;;;;;;;;;27.31;28.91;101253.47;5089620;28;1073;-21
2023/05/04 05:26:59;;;;;;;;;;;;;;;27.92;27.82;101258.34;5083437;28;1093;-21
2023/05/04 05:29:25;;;;;;;;;;;;;;;28.09;27.43;101245.56;5090511;28;1138;-21
2023/05/04 05:31:50;;;;;;;;;;;;;;;28.75;26.87;101242.59;5064246;28;1159;-21
2023/05/04 05:34:16;;;;;;;;;;;;;;;27.27;28.57;101247.56;5085610;28;1217;-21
2023/05/04 05:36:42;;;;;;;;;;;;;;;26.98;29.23;101240.78;5095143;28;1989;-21
2023/05/04 05:39:07;;;;;;;;;;;;;;;28.35;27.49;101243.59;5085539;28;1059;-22
2023/05/04 05:41:33;;;;;;;;;;;;;;;28.01;27.55;101261.00;5090251;28;1109;-21
2023/05/04 05:43:58;;;;;;;;;;;;;;;27.44;28.55;101261.03;5077136;28;1030;-21
2023/05/04 05:46:24;;;;;;;;;;;;;;;28.05;28.12;101270.44;5094885;28;1110;-21
2023/05/04 05:48:50;;;;;;;;;;;;;;;28.48;27.38;101281.72;5085606;28;1125;-21
2023/05/04 05:51:15;;;;;;;;;;;;;;;28.12;27.37;101276.84;5090489;28;1055;-22
2023/05/04 05:53:41;;;;;;;;;;;;;;;27.30;28.62;101276.06;5083297;28;1122;-21
2023/05/04 05:56:07;;;;;;;;;;;;;;;28.08;27.97;101279.06;5083137;28;1241;-21
2023/05/04 05:58:32;;;;;;;;;;;;;;;28.59;27.30;101280.44;5089951;28;1975;-21
2023/05/04 06:00:58;;;;;;;;;;;;;;;28.60;26.97;101284.88;5077072;28;1334;-21
2023/05/04 06:03:23;;;;;;;;;;;;;;;27.30;28.66;101270.66;5089666;28;1077;-21
2023/05/04 06:05:49;;;;;;;;;;;;;;;26.97;29.52;101274.22;5080505;28;1112;-21
2023/05/04 06:08:14;;;;;;;;;;;;;;;28.19;27.94;101271.56;5074906;28;1381;-21
2023/05/04 06:10:40;;;;;;;;;;;;;;;28.73;27.20;101262.59;5089664;28;1222;-21
2023/05/04 06:13:06;;;;;;;;;;;;;;;27.17;29.31;101252.28;5076597;28;1077;-22
2023/05/04 06:15:31;;;;;;;;;;;;;;;26.87;29.50;101247.41;5077574;28;1042;-21
2023/05/04 06:17:57;;;;;;;;;;;;;;;28.11;28.01;101240.81;5084574;28;1910;-21
2023/05/04 06:20:24;;;;;;;;;;;;;;;28.59;27.46;101237.16;5083107;28;1861;-21
2023/05/04 06:22:49;;;;;;;;;;;;;;;29.12;26.40;101224.72;5096538;28;1130;-21
2023/05/04 06:25:15;;;;;;;;;;;;;;;29.58;26.00;101217.41;5078020;28;1042;-21
2023/05/04 06:27:40;;;;;;;;;;;;;;;29.74;25.54;101202.84;5083608;28;1191;-22
2023/05/04 06:30:06;;;;;;;;;;;;;;;29.89;25.36;101194.69;5074901;28;1241;-21
2023/05/04 06:32:32;;;;;;;;;;;;;;;29.90;25.29;101196.34;5075271;28;1115;-21
2023/05/04 06:34:58;;;;;;;;;;;;;;;28.35;27.59;101197.59;5076086;28;1230;-21
2023/05/04 06:37:24;;;;;;;;;;;;;;;27.78;28.61;101197.75;5082412;28;1981;-21
2023/05/04 06:39:49;;;;;;;;;;;;;;;27.98;28.10;101194.59;5079951;28;1199;-21
2023/05/04 06:42:15;;;;;;;;;;;;;;;27.91;28.07;101204.44;5093780;28;1053;-21
2023/05/04 06:44:41;;;;;;;;;;;;;;;28.67;27.36;101192.09;5077268;28;1180;-21
2023/05/04 06:47:06;;;;;;;;;;;;;;;28.69;26.86;101195.47;5084168;28;1065;-21
2023/05/04 06:49:32;;;;;;;;;;;;;;;27.92;28.31;101198.88;5075942;28;1066;-21
2023/05/04 06:51:58;;;;;;;;;;;;;;;28.12;28.47;101214.63;5076103;28;1209;-21
2023/05/04 06:54:24;;;;;;;;;;;;;;;28.73;27.53;101215.72;5080616;28;1190;-21
2023/05/04 06:56:49;;;;;;;;;;;;;;;29.00;27.00;101226.16;5075732;28;1977;-21
2023/05/04 06:59:15;;;;;;;;;;;;;;;27.42;29.18;101227.94;5078917;28;1139;-21
2023/05/04 07:01:41;;;;;;;;;;;;;;;27.18;29.49;101235.91;5075982;28;1087;-21
2023/05/04 07:04:06;;;;;;;;;;;;;;;28.46;27.71;101236.94;5085528;28;1074;-21
2023/05/04 07:06:32;;;;;;;;;;;;;;;28.63;27.29;101237.63;5078023;28;1245;-21
2023/05/04 07:08:58;;;;;;;;;;;;;;;27.53;28.84;101241.06;5077504;28;1225;-21
2023/05/04 07:11:23;;;;;;;;;;;;;;;27.63;29.51;101238.16;5089940;28;1173;-21
2023/05/04 07:13:49;;;;;;;;;;;;;;;28.44;28.25;101239.81;5079501;28;1119;-21
2023/05/04 07:16:14;;;;;;;;;;;;;;;28.51;27.36;101236.38;5078243;28;1143;-21
2023/05/04 07:18:46;;;;;;;;;;;;;;;27.54;28.95;101236.50;5079581;28;1913;-21
2023/05/04 07:21:12;;;;;;;;;;;;;;;27.92;28.80;101231.31;5079640;28;1217;-21
2023/05/04 07:23:38;;;;;;;;;;;;;;;28.70;27.54;101218.81;5079392;28;1254;-21
2023/05/04 07:26:03;;;;;;;;;;;;;;;28.15;27.98;101216.13;5061430;28;1238;-21
2023/05/04 07:28:29;;;;;;;;;;;;;;;27.49;29.03;101216.25;5088913;28;1083;-22
2023/05/04 07:30:54;;;;;;;;;;;;;;;28.16;28.51;101213.25;5085041;28;1449;-22
2023/05/04 07:33:20;;;;;;;;;;;;;;;28.83;27.27;101201.94;5089672;28;1227;-22
2023/05/04 07:35:45;;;;;;;;;;;;;;;27.54;29.20;101201.38;5095750;28;1141;-22
2023/05/04 07:38:11;;;;;;;;;;;;;;;27.38;29.21;101203.97;5089227;28;1958;-22
2023/05/04 07:40:36;;;;;;;;;;;;;;;28.60;27.84;101192.84;5080529;28;1226;-23
2023/05/04 07:43:02;;;;;;;;;;;;;;;27.75;28.54;101188.13;5078259;28;1296;-23
2023/05/04 07:45:27;;;;;;;;;;;;;;;27.48;29.09;101175.88;5084681;28;1059;-22
2023/05/04 07:47:53;;;;;;;;;;;;;;;28.19;28.44;101174.19;5080166;28;1316;-22
2023/05/04 07:50:18;;;;;;;;;;;;;;;28.19;27.94;101168.78;5079476;28;1114;-26
2023/05/04 07:52:46;;;;;;;;;;;;;;;27.41;29.16;101173.03;5078526;28;1078;-21
2023/05/04 07:55:12;;;;;;;;;;;;;;;27.22;29.88;101168.91;5084697;28;1035;-22
2023/05/04 07:57:37;;;;;;;;;;;;;;;28.53;27.78;101172.94;5079755;28;1910;-21
2023/05/04 08:00:04;;;;;;;;;;;;;;;27.53;28.95;101170.81;5061029;28;1179;-22
2023/05/04 08:02:38;;;;;;;;;;;;;;;27.33;29.26;101171.22;5095221;28;1242;-22
2023/05/04 08:05:04;;;;;;;;;;;;;;;28.60;28.20;101168.47;5078189;28;1135;-21
2023/05/04 08:07:30;;;;;;;;;;;;;;;27.49;29.19;101175.72;5087023;28;1186;-22
2023/05/04 08:09:56;;;;;;;;;;;;;;;27.48;29.66;101178.59;5078023;28;1139;-22
2023/05/04 08:12:22;;;;;;;;;;;;;;;28.35;28.71;101162.44;5080866;28;1198;-22
2023/05/04 08:14:50;;;;;;;;;;;;;;;27.51;30.61;101172.81;5081818;28;1380;-22
2023/05/04 08:17:16;;;;;;;;;;;;;;;27.21;31.60;101162.66;5086765;28;1967;-22
2023/05/04 08:19:41;;;;;;;;;;;;;;;27.70;30.37;101151.84;5085656;28;980;-21
2023/05/04 08:22:07;;;;;;;;;;;;;;;27.94;29.98;101150.03;5093949;28;1245;-22
2023/05/04 08:24:33;;;;;;;;;;;;;;;26.88;31.88;101158.16;5095102;28;1304;-22
2023/05/04 08:26:58;;;;;;;;;;;;;;;26.84;32.21;101164.88;5094462;28;1288;-22
2023/05/04 08:29:24;;;;;;;;;;;;;;;28.43;29.58;101165.06;5078490;28;1218;-21
2023/05/04 08:31:50;;;;;;;;;;;;;;;27.35;30.84;101162.94;5080818;28;1238;-21
2023/05/04 08:34:15;;;;;;;;;;;;;;;26.99;30.89;101158.81;5091598;28;1141;-21
2023/05/04 08:36:41;;;;;;;;;;;;;;;28.06;29.82;101150.44;5080872;28;1118;-22
2023/05/04 08:39:06;;;;;;;;;;;;;;;27.48;29.91;101155.13;5090504;28;1914;-21
2023/05/04 08:41:32;;;;;;;;;;;;;;;27.07;30.38;101141.75;5061029;28;1086;-22
2023/05/04 08:43:58;;;;;;;;;;;;;;;27.68;30.32;101141.19;5081702;28;1031;-22
2023/05/04 08:46:23;;;;;;;;;;;;;;;28.54;28.31;101141.31;5076376;28;1146;-23
2023/05/04 08:48:49;;;;;;;;;;;;;;;27.28;30.15;101140.38;5059788;28;1231;-22
2023/05/04 08:51:14;;;;;;;;;;;;;;;27.29;29.90;101148.28;5077158;28;1281;-22
2023/05/04 08:53:42;;;;;;;;;;;;;;;28.40;28.84;101143.78;5077773;28;1198;-21
2023/05/04 08:56:08;;;;;;;;;;;;;;;27.32;29.73;101147.09;5086287;28;879;-21
2023/05/04 08:58:36;;;;;;;;;;;;;;;27.14;29.94;101145.47;5081230;28;1934;-21
2023/05/04 09:01:02;;;;;;;;;;;;;;;28.10;29.26;101144.50;5076096;28;1170;-22
2023/05/04 09:03:28;;;;;;;;;;;;;;;27.53;29.08;101140.25;5090796;28;1114;-24
2023/05/04 09:05:54;;;;;;;;;;;;;;;27.45;29.48;101143.81;5076696;28;1142;-21
2023/05/04 09:08:19;;;;;;;;;;;;;;;28.21;28.81;101142.41;5082811;28;916;-22
2023/05/04 09:10:45;;;;;;;;;;;;;;;27.65;29.17;101140.69;5089847;28;1078;-22
2023/05/04 09:13:10;;;;;;;;;;;;;;;27.34;30.24;101142.34;5077183;28;1151;-22
2023/05/04 09:15:36;;;;;;;;;;;;;;;27.75;29.76;101144.03;5077262;28;1054;-21
2023/05/04 09:18:06;;;;;;;;;;;;;;;27.87;29.87;101133.66;5077063;28;1901;-22
2023/05/04 09:20:41;;;;;;;;;;;;;;;26.80;32.25;101130.31;5090020;28;1075;-22
2023/05/04 09:23:07;;;;;;;;;;;;;;;27.58;30.46;101132.44;5077084;28;1206;-21
2023/05/04 09:25:53;;;;;;;;;;;;;;;28.15;29.17;101126.88;5077364;28;1134;-21
2023/05/04 09:28:19;;;;;;;;;;;;;;;27.05;30.82;101127.59;5076415;28;1240;-21
2023/05/04 09:30:45;;;;;;;;;;;;;;;27.16;30.92;101129.09;5077346;28;1238;-22
2023/05/04 09:33:10;;;;;;;;;;;;;;;28.33;28.89;101123.88;5089196;28;1193;-22
2023/05/04 09:35:39;;;;;;;;;;;;;;;27.24;30.30;101123.66;5080694;28;1312;-22
2023/05/04 09:38:06;;;;;;;;;;;;;;;27.22;30.27;101128.38;5091272;28;1893;-21
2023/05/04 09:40:31;;;;;;;;;;;;;;;28.51;28.62;101115.44;5097169;28;986;-22
2023/05/04 09:42:57;;;;;;;;;;;;;;;27.23;30.35;101117.41;5084432;28;1237;-21
2023/05/04 09:45:23;;;;;;;;;;;;;;;27.09;30.35;101120.84;5095499;28;1245;-22
2023/05/04 09:47:51;;;;;;;;;;;;;;;28.17;28.99;101108.59;5096864;28;1238;-21
2023/05/04 09:50:28;;;;;;;;;;;;;;;27.59;29.41;101115.22;5077554;28;1242;-22
2023/05/04 09:52:53;;;;;;;;;;;;;;;27.38;29.87;101111.25;5082463;28;1122;-21
2023/05/04 09:55:19;;;;;;;;;;;;;;;28.11;29.24;101104.78;5082786;28;1289;-22
2023/05/04 09:57:45;;;;;;;;;;;;;;;27.62;29.73;101098.66;5076791;28;1897;-22
2023/05/04 10:00:11;;;;;;;;;;;;;;;27.31;30.35;101107.59;5076215;28;1168;-22
2023/05/04 10:02:37;;;;;;;;;;;;;;;27.89;29.69;101104.59;5076673;28;1226;-23
2023/05/04 10:05:03;;;;;;;;;;;;;;;27.94;29.10;101096.78;5079134;28;1261;-22
2023/05/04 10:07:32;;;;;;;;;;;;;;;27.40;29.87;101109.22;5089889;28;1197;-22
2023/05/04 10:09:58;;;;;;;;;;;;;;;27.47;30.10;101112.91;5088266;28;1125;-21
2023/05/04 10:12:24;;;;;;;;;;;;;;;27.97;28.88;101109.94;5060613;28;1105;-22
2023/05/04 10:14:49;;;;;;;;;;;;;;;27.30;30.30;101106.75;5087837;28;1043;-22
2023/05/04 10:17:15;;;;;;;;;;;;;;;27.22;30.50;101113.03;5077511;28;1909;-22
2023/05/04 10:19:48;;;;;;;;;;;;;;;28.64;28.59;101106.69;5079188;28;1210;-21
2023/05/04 10:22:33;;;;;;;;;;;;;;;27.45;30.16;101103.28;5072001;28;1214;-22
2023/05/04 10:25:08;;;;;;;;;;;;;;;27.45;30.22;101101.44;5044676;28;1342;-22
2023/05/04 10:27:36;;;;;;;;;;;;;;;28.20;28.80;101100.97;5077948;28;1190;-21
2023/05/04 10:30:02;;;;;;;;;;;;;;;27.45;30.20;101093.34;5082812;28;1234;-22
2023/05/04 10:32:27;;;;;;;;;;;;;;;27.25;30.63;101099.19;5095997;28;1202;-22
2023/05/04 10:35:02;;;;;;;;;;;;;;;28.56;28.67;101102.19;5083045;28;1126;-21
2023/05/04 10:37:30;;;;;;;;;;;;;;;27.62;30.00;101095.94;5095887;28;1910;-22
2023/05/04 10:39:57;;;;;;;;;;;;;;;27.60;29.65;101093.44;5088044;28;1289;-22
2023/05/04 10:42:22;;;;;;;;;;;;;;;28.66;28.63;101093.81;5089752;28;1015;-22
2023/05/04 10:44:48;;;;;;;;;;;;;;;27.60;29.87;101092.56;5082700;28;889;-21
2023/05/04 10:47:14;;;;;;;;;;;;;;;27.65;30.01;101100.13;5094946;28;1091;-24
2023/05/04 10:49:40;;;;;;;;;;;;;;;28.44;29.19;101099.13;5092207;28;1033;-22
2023/05/04 10:52:06;;;;;;;;;;;;;;;27.81;29.40;101100.06;5082087;28;1139;-23
2023/05/04 10:54:32;;;;;;;;;;;;;;;27.61;29.76;101102.38;5091260;28;1115;-22
2023/05/04 10:57:02;;;;;;;;;;;;;;;28.27;29.46;101111.06;5093076;28;1913;-22
2023/05/04 10:59:27;;;;;;;;;;;;;;;27.41;31.63;101102.78;5086039;28;1320;-24
2023/05/04 11:01:53;;;;;;;;;;;;;;;27.84;31.33;101102.41;5078748;28;1214;-22
2023/05/04 11:04:22;;;;;;;;;;;;;;;27.38;30.81;101106.72;5079506;28;1310;-22
2023/05/04 11:06:57;;;;;;;;;;;;;;;27.69;30.74;101105.06;5085781;28;1227;-22
2023/05/04 11:09:22;;;;;;;;;;;;;;;28.46;29.54;101109.75;5081877;28;1226;-22
2023/05/04 11:11:48;;;;;;;;;;;;;;;27.53;30.41;101114.06;5079527;28;1321;-22
2023/05/04 11:14:23;;;;;;;;;;;;;;;27.47;30.66;101114.78;5079469;28;1246;-22
2023/05/04 11:16:49;;;;;;;;;;;;;;;28.29;29.80;101114.44;5078513;28;1119;-22
2023/05/04 11:19:14;;;;;;;;;;;;;;;27.81;29.49;101105.47;5099768;28;1910;-22
2023/05/04 11:21:40;;;;;;;;;;;;;;;27.66;30.03;101101.84;5090814;28;881;-21
2023/05/04 11:24:05;;;;;;;;;;;;;;;27.98;29.97;101095.41;5091647;28;1254;-22
2023/05/04 11:26:31;;;;;;;;;;;;;;;28.39;29.30;101104.22;5099141;28;1202;-21
2023/05/04 11:28:56;;;;;;;;;;;;;;;27.55;31.00;101097.66;5086614;28;1249;-23
2023/05/04 11:31:22;;;;;;;;;;;;;;;27.52;30.94;101098.88;5078860;28;1317;-22
2023/05/04 11:33:48;;;;;;;;;;;;;;;28.62;29.50;101095.22;5085560;28;1143;-22
2023/05/04 11:36:13;;;;;;;;;;;;;;;27.60;31.03;101089.88;5078735;28;1242;-22
2023/05/04 11:38:39;;;;;;;;;;;;;;;27.57;30.96;101098.34;5060830;28;1973;-21
2023/05/04 11:41:04;;;;;;;;;;;;;;;28.42;29.87;101098.44;5078857;28;1281;-22
2023/05/04 11:43:30;;;;;;;;;;;;;;;27.65;30.33;101097.44;5078421;28;1261;-22
2023/05/04 11:45:59;;;;;;;;;;;;;;;27.53;30.79;101087.03;5077281;28;1183;-21
2023/05/04 11:48:25;;;;;;;;;;;;;;;28.43;29.93;101092.00;5081692;28;1229;-22
2023/05/04 11:50:51;;;;;;;;;;;;;;;27.80;30.08;101097.53;5098666;28;1288;-22
2023/05/04 11:53:20;;;;;;;;;;;;;;;27.56;30.88;101093.97;5098806;28;1225;-22
2023/05/04 11:55:45;;;;;;;;;;;;;;;28.12;30.05;101090.22;5096857;28;1221;-22
2023/05/04 11:58:11;;;;;;;;;;;;;;;28.14;29.53;101087.34;5076872;28;1894;-22
2023/05/04 12:00:38;;;;;;;;;;;;;;;27.62;30.64;101091.41;5078908;28;1238;-22
2023/05/04 12:03:07;;;;;;;;;;;;;;;27.85;30.32;101087.03;5078638;28;1111;-22
2023/05/04 12:05:33;;;;;;;;;;;;;;;28.57;28.87;101093.06;5079758;28;1205;-22
2023/05/04 12:07:59;;;;;;;;;;;;;;;27.58;30.59;101079.25;5082148;28;1319;-22
2023/05/04 12:10:28;;;;;;;;;;;;;;;27.55;30.70;101081.44;5086671;28;1063;-21
2023/05/04 12:12:54;;;;;;;;;;;;;;;28.75;29.11;101085.59;5078155;28;1068;-23
2023/05/04 12:15:35;;;;;;;;;;;;;;;27.91;30.01;101085.50;5078430;28;1222;-22
2023/05/04 12:18:01;;;;;;;;;;;;;;;27.86;29.91;101081.44;5077634;28;1918;-22
2023/05/04 12:20:27;;;;;;;;;;;;;;;28.77;28.96;101080.84;5091472;28;1186;-24
2023/05/04 12:22:56;;;;;;;;;;;;;;;27.91;29.59;101086.31;5078648;28;1193;-23
2023/05/04 12:25:22;;;;;;;;;;;;;;;28.10;29.69;101073.34;5095802;28;1038;-22
2023/05/04 12:27:47;;;;;;;;;;;;;;;28.63;29.19;101085.25;5098554;28;1070;-22
2023/05/04 12:30:13;;;;;;;;;;;;;;;28.10;29.93;101081.44;5067154;28;1141;-22
2023/05/04 12:32:39;;;;;;;;;;;;;;;28.15;29.51;101080.88;5093707;28;1190;-22
2023/05/04 12:35:05;;;;;;;;;;;;;;;28.32;29.50;101081.59;5084508;28;1077;-22
2023/05/04 12:37:30;;;;;;;;;;;;;;;28.65;28.67;101080.44;5087946;28;1913;-22
2023/05/04 12:39:56;;;;;;;;;;;;;;;27.99;29.93;101078.13;5077945;28;1150;-22
2023/05/04 12:42:21;;;;;;;;;;;;;;;28.02;30.02;101071.53;5086272;28;1031;-22